Time;durP1;ratioP1;P1;durP2;ratioP2;P2;SDS_P1;SDS_P2;PMS_P1;PMS_P2;Temp;Humidity;BMP_temperature;BMP_pressure;BME280_temperature;BME280_humidity;BME280_pressure;Samples;Min_cycle;Max_cycle;Signal;HPM_P1;HPM_P2
2021/07/08 00:01:51;;;;;;;8.57;4.65;;;16.80;84.10;;;;;;5060058;28;20389;-80
2021/07/08 00:04:17;;;;;;;6.10;5.18;;;16.70;85.20;;;;;;5059666;28;20441;-80
2021/07/08 00:06:42;;;;;;;12.80;5.18;;;16.70;86.50;;;;;;5061286;28;20849;-80
2021/07/08 00:09:09;;;;;;;7.70;4.97;;;16.70;87.50;;;;;;5060041;28;20503;-78
2021/07/08 00:11:36;;;;;;;7.85;5.30;;;16.70;87.60;;;;;;5061325;28;20905;-79
2021/07/08 00:14:03;;;;;;;8.60;4.90;;;16.80;88.40;;;;;;5063936;28;20381;-78
2021/07/08 00:16:29;;;;;;;8.77;4.97;;;16.90;86.20;;;;;;5061783;28;20449;-78
2021/07/08 00:18:55;;;;;;;8.75;5.07;;;16.90;86.20;;;;;;5060785;28;20417;-78
2021/07/08 00:21:21;;;;;;;10.88;5.35;;;16.80;86.70;;;;;;5063132;28;20454;-79
2021/07/08 00:23:48;;;;;;;8.30;4.75;;;16.80;88.00;;;;;;5069398;28;20392;-79
2021/07/08 00:26:14;;;;;;;9.63;5.30;;;16.80;87.70;;;;;;5072168;28;20385;-77
2021/07/08 00:28:39;;;;;;;7.50;5.63;;;16.90;87.60;;;;;;5073640;28;20424;-78
2021/07/08 00:31:05;;;;;;;6.05;4.85;;;16.90;87.80;;;;;;5073495;28;20385;-79
2021/07/08 00:33:31;;;;;;;9.67;4.80;;;16.80;88.10;;;;;;5070708;28;20401;-76
2021/07/08 00:35:56;;;;;;;7.90;5.07;;;16.90;87.10;;;;;;5071539;28;20386;-77
2021/07/08 00:38:22;;;;;;;6.77;5.70;;;16.90;87.30;;;;;;5070708;28;20394;-77
2021/07/08 00:40:48;;;;;;;5.57;5.05;;;16.90;87.30;;;;;;5064534;28;20389;-77
2021/07/08 00:43:13;;;;;;;7.70;4.95;;;16.80;87.60;;;;;;5057032;28;20423;-80
2021/07/08 00:45:39;;;;;;;10.82;4.78;;;16.90;86.90;;;;;;5066845;28;20389;-78
2021/07/08 00:48:06;;;;;;;6.75;4.70;;;16.90;87.20;;;;;;5065950;28;20484;-77
2021/07/08 00:50:42;;;;;;;7.90;5.13;;;16.90;87.20;;;;;;5061282;28;20488;-78
2021/07/08 00:53:11;;;;;;;15.25;5.85;;;17.00;86.70;;;;;;5057144;28;20382;-78
2021/07/08 00:55:37;;;;;;;7.03;4.72;;;17.10;86.20;;;;;;5063891;28;20385;-77
2021/07/08 00:58:04;;;;;;;8.27;5.00;;;17.20;84.80;;;;;;5063185;28;20974;-78
2021/07/08 01:00:32;;;;;;;8.63;4.97;;;17.30;83.70;;;;;;5084246;28;20457;-78
2021/07/08 01:02:59;;;;;;;11.35;5.30;;;17.40;83.30;;;;;;5069842;28;20596;-77
2021/07/08 01:05:29;;;;;;;8.38;5.03;;;17.30;83.60;;;;;;5070442;28;20720;-78
2021/07/08 01:07:56;;;;;;;7.20;4.60;;;17.30;83.90;;;;;;5062837;28;20396;-78
2021/07/08 01:10:22;;;;;;;5.72;4.60;;;17.30;83.30;;;;;;5069424;28;20390;-78
2021/07/08 01:12:48;;;;;;;6.43;4.70;;;17.30;83.70;;;;;;5086650;28;20377;-78
2021/07/08 01:15:14;;;;;;;9.07;5.23;;;17.30;82.90;;;;;;5066678;28;20427;-78
2021/07/08 01:17:42;;;;;;;6.30;5.10;;;17.20;83.40;;;;;;5059870;28;20397;-78
2021/07/08 01:20:09;;;;;;;8.52;4.97;;;17.10;84.50;;;;;;5064134;28;20396;-78
2021/07/08 01:22:36;;;;;;;5.88;4.85;;;17.00;85.80;;;;;;5068713;28;20382;-78
2021/07/08 01:25:06;;;;;;;8.32;6.32;;;16.90;87.60;;;;;;5058667;28;20921;-77
2021/07/08 01:27:32;;;;;;;9.75;5.82;;;17.00;87.40;;;;;;5055252;28;20387;-79
2021/07/08 01:29:58;;;;;;;6.57;5.05;;;16.90;87.50;;;;;;5056314;28;20955;-79
2021/07/08 01:32:23;;;;;;;6.00;4.80;;;16.80;89.00;;;;;;5054173;28;20386;-78
2021/07/08 01:34:49;;;;;;;6.40;4.57;;;16.90;89.90;;;;;;5055065;28;20446;-77
2021/07/08 01:37:16;;;;;;;10.80;5.60;;;16.90;88.00;;;;;;5070184;28;20374;-79
2021/07/08 01:39:45;;;;;;;9.00;5.60;;;16.70;89.40;;;;;;5054663;28;20458;-78
2021/07/08 01:42:11;;;;;;;7.93;5.55;;;16.50;91.60;;;;;;5054503;28;20390;-79
2021/07/08 01:44:37;;;;;;;7.38;5.32;;;16.40;93.40;;;;;;5053628;28;20476;-79
2021/07/08 01:47:03;;;;;;;10.30;6.38;;;16.40;94.60;;;;;;5054747;28;20472;-79
2021/07/08 01:49:29;;;;;;;9.43;5.65;;;16.30;95.70;;;;;;5054007;28;20402;-78
2021/07/08 01:51:54;;;;;;;9.30;5.45;;;16.20;96.60;;;;;;5052860;28;20393;-77
2021/07/08 01:54:20;;;;;;;11.77;5.63;;;16.20;96.80;;;;;;5053340;28;20460;-77
2021/07/08 01:56:47;;;;;;;8.13;5.17;;;16.30;96.50;;;;;;5052845;28;20908;-77
2021/07/08 01:59:13;;;;;;;8.20;5.63;;;16.30;96.60;;;;;;5052245;28;20827;-79
2021/07/08 02:01:39;;;;;;;7.10;4.95;;;16.20;96.60;;;;;;5064124;28;20378;-78
2021/07/08 02:04:05;;;;;;;6.30;5.40;;;16.20;97.00;;;;;;5071654;28;20388;-76
2021/07/08 02:06:31;;;;;;;13.05;5.40;;;16.20;96.80;;;;;;5072299;28;20397;-76
2021/07/08 02:08:57;;;;;;;9.45;5.45;;;16.10;97.80;;;;;;5060245;28;20405;-76
2021/07/08 02:11:23;;;;;;;9.20;5.47;;;16.10;98.50;;;;;;5056500;28;20428;-78
2021/07/08 02:13:48;;;;;;;7.88;5.40;;;16.10;97.90;;;;;;5065179;28;20377;-77
2021/07/08 02:16:14;;;;;;;8.27;5.10;;;16.10;98.80;;;;;;5072207;28;20393;-77
2021/07/08 02:18:41;;;;;;;7.30;5.47;;;16.00;99.50;;;;;;5072440;28;20401;-76
2021/07/08 02:21:08;;;;;;;9.88;6.10;;;16.00;99.90;;;;;;5071449;28;20396;-77
2021/07/08 02:23:33;;;;;;;9.15;5.45;;;16.00;99.80;;;;;;5053010;28;20363;-77
2021/07/08 02:26:00;;;;;;;6.80;5.20;;;15.90;99.90;;;;;;5054172;28;20437;-77
2021/07/08 02:28:26;;;;;;;10.27;6.07;;;15.90;99.90;;;;;;5053878;28;20403;-76
2021/07/08 02:30:51;;;;;;;6.50;5.90;;;15.80;99.90;;;;;;5052785;28;20384;-76
2021/07/08 02:33:17;;;;;;;8.30;5.90;;;15.80;99.90;;;;;;5051515;28;20404;-76
2021/07/08 02:35:44;;;;;;;8.80;5.50;;;15.90;99.90;;;;;;5068491;28;20572;-77
2021/07/08 02:38:10;;;;;;;7.55;5.55;;;15.80;99.90;;;;;;5052226;28;20402;-77
2021/07/08 02:40:40;;;;;;;6.80;6.00;;;15.80;99.90;;;;;;5054112;28;20398;-77
2021/07/08 02:43:06;;;;;;;12.83;6.83;;;15.80;99.90;;;;;;5036786;28;20456;-78
2021/07/08 02:45:35;;;;;;;10.63;6.55;;;15.80;99.90;;;;;;5035569;28;20395;-78
2021/07/08 02:48:02;;;;;;;10.77;7.57;;;15.80;99.90;;;;;;5036963;28;20398;-78
2021/07/08 02:50:30;;;;;;;10.05;6.80;;;15.80;99.90;;;;;;5034930;28;20391;-78
2021/07/08 02:52:56;;;;;;;10.48;6.57;;;15.80;99.90;;;;;;5034896;28;20746;-78
2021/07/08 02:55:23;;;;;;;7.32;6.07;;;15.80;99.90;;;;;;5036189;28;20470;-77
2021/07/08 02:57:49;;;;;;;11.45;6.22;;;15.80;99.90;;;;;;5040158;28;20386;-78
2021/07/08 03:00:18;;;;;;;11.68;6.90;;;15.80;99.90;;;;;;5038100;28;20382;-78
2021/07/08 03:02:44;;;;;;;10.55;6.72;;;15.80;99.90;;;;;;5037848;28;20387;-77
2021/07/08 03:05:10;;;;;;;9.15;6.00;;;15.80;99.90;;;;;;5040086;28;20397;-77
2021/07/08 03:07:40;;;;;;;10.27;6.68;;;15.90;99.20;;;;;;5048208;28;20393;-77
2021/07/08 03:10:08;;;;;;;8.27;5.88;;;16.00;98.30;;;;;;5049320;28;20410;-76
2021/07/08 03:12:34;;;;;;;8.65;5.90;;;16.00;96.70;;;;;;5046483;28;20418;-77
2021/07/08 03:14:59;;;;;;;11.18;6.68;;;15.90;97.50;;;;;;5053962;28;20452;-78
2021/07/08 03:17:25;;;;;;;10.35;6.15;;;15.90;98.40;;;;;;5054456;28;20399;-77
2021/07/08 03:19:51;;;;;;;7.20;6.30;;;16.00;98.50;;;;;;5048120;28;20939;-77
2021/07/08 03:22:16;;;;;;;10.87;6.40;;;16.00;96.40;;;;;;5049175;28;20459;-77
2021/07/08 03:24:42;;;;;;;9.53;6.50;;;15.90;97.50;;;;;;5071225;28;20440;-78
2021/07/08 03:27:07;;;;;;;11.30;6.60;;;15.80;99.20;;;;;;5072314;28;20412;-79
2021/07/08 03:29:33;;;;;;;10.55;6.70;;;15.70;99.40;;;;;;5062175;28;20415;-79
2021/07/08 03:31:59;;;;;;;10.90;6.50;;;15.70;99.90;;;;;;5063654;28;20390;-77
2021/07/08 03:34:24;;;;;;;12.80;6.87;;;15.70;99.90;;;;;;5083313;23;20436;-75
2021/07/08 03:36:50;;;;;;;11.93;7.20;;;15.60;99.90;;;;;;5079613;28;20384;-78
2021/07/08 03:39:15;;;;;;;7.72;6.30;;;15.70;99.90;;;;;;5077966;28;20387;-77
2021/07/08 03:41:41;;;;;;;12.00;6.90;;;15.60;99.90;;;;;;5079099;28;20380;-78
2021/07/08 03:44:07;;;;;;;10.18;6.65;;;15.60;99.90;;;;;;5078766;28;20376;-77
2021/07/08 03:46:32;;;;;;;10.20;6.40;;;15.60;99.90;;;;;;5079609;28;20386;-76
2021/07/08 03:48:58;;;;;;;11.10;6.83;;;15.60;99.90;;;;;;5081817;28;20442;-78
2021/07/08 03:51:24;;;;;;;8.82;6.60;;;15.70;99.90;;;;;;5082599;28;20388;-78
2021/07/08 03:53:49;;;;;;;10.48;6.50;;;15.70;99.90;;;;;;5084821;28;20813;-78
2021/07/08 03:56:15;;;;;;;10.02;6.65;;;15.70;99.90;;;;;;5083370;28;20384;-77
2021/07/08 03:58:41;;;;;;;11.73;6.90;;;15.70;99.90;;;;;;5082065;28;20406;-79
2021/07/08 04:01:07;;;;;;;10.32;6.95;;;15.80;99.90;;;;;;5080423;28;20417;-76
2021/07/08 04:03:33;;;;;;;13.25;6.97;;;16.00;99.90;;;;;;5064447;28;20432;-77
2021/07/08 04:05:58;;;;;;;13.40;7.70;;;16.10;97.10;;;;;;5061019;28;20395;-78
2021/07/08 04:08:24;;;;;;;10.80;6.73;;;16.00;97.70;;;;;;5078220;28;20396;-77
2021/07/08 04:10:50;;;;;;;7.23;5.83;;;16.00;98.50;;;;;;5061662;28;20430;-78
2021/07/08 04:13:18;;;;;;;10.97;7.10;;;15.90;98.70;;;;;;5078568;28;20379;-76
2021/07/08 04:15:45;;;;;;;7.10;5.80;;;15.90;99.40;;;;;;5079126;28;20863;-77
2021/07/08 04:18:12;;;;;;;9.00;6.30;;;15.90;99.70;;;;;;5079059;28;20724;-77
2021/07/08 04:20:38;;;;;;;11.45;6.70;;;15.90;99.80;;;;;;5078896;28;20449;-77
2021/07/08 04:23:05;;;;;;;9.90;6.45;;;16.00;99.60;;;;;;5079763;28;20379;-76
2021/07/08 04:25:32;;;;;;;10.00;6.80;;;16.10;98.80;;;;;;5086754;28;20387;-77
2021/07/08 04:27:57;;;;;;;11.75;6.40;;;16.10;98.40;;;;;;5085571;28;20383;-74
2021/07/08 04:30:24;;;;;;;11.50;6.70;;;16.10;98.20;;;;;;5066697;28;20436;-75
2021/07/08 04:32:51;;;;;;;6.80;5.90;;;16.30;97.20;;;;;;5086665;28;20471;-76
2021/07/08 04:35:25;;;;;;;14.35;6.90;;;16.30;97.00;;;;;;5069593;28;20407;-77
2021/07/08 04:37:51;;;;;;;7.90;6.63;;;16.40;97.10;;;;;;5069625;28;20383;-76
2021/07/08 04:40:19;;;;;;;8.85;6.03;;;16.50;96.30;;;;;;5087991;28;20434;-77
2021/07/08 04:42:46;;;;;;;13.68;6.60;;;16.60;95.30;;;;;;5086896;28;20562;-76
2021/07/08 04:45:11;;;;;;;8.10;6.60;;;16.70;93.90;;;;;;5088707;28;20390;-76
2021/07/08 04:47:42;;;;;;;28.95;16.67;;;16.80;92.50;;;;;;5067633;28;20391;-75
2021/07/08 04:50:10;;;;;;;140.10;91.65;;;16.90;90.30;;;;;;5067753;28;20396;-77
2021/07/08 04:52:37;;;;;;;63.63;43.22;;;17.00;89.00;;;;;;5083124;28;20380;-76
2021/07/08 04:55:05;;;;;;;28.30;15.63;;;17.10;87.00;;;;;;5082024;28;20383;-76
2021/07/08 04:57:30;;;;;;;22.00;13.47;;;17.30;83.20;;;;;;5083537;28;20380;-77
2021/07/08 04:59:56;;;;;;;13.10;7.33;;;17.50;80.60;;;;;;5083938;28;20455;-76
2021/07/08 05:02:21;;;;;;;14.17;8.17;;;17.60;78.80;;;;;;5083918;28;20406;-75
2021/07/08 05:04:47;;;;;;;13.50;9.15;;;17.70;78.00;;;;;;5083017;28;20396;-76
2021/07/08 05:07:14;;;;;;;14.93;7.27;;;17.80;75.10;;;;;;5080658;28;20449;-77
2021/07/08 05:09:39;;;;;;;15.05;8.68;;;17.90;73.80;;;;;;5080174;28;20483;-77
2021/07/08 05:12:06;;;;;;;13.88;7.10;;;18.10;71.60;;;;;;5082310;28;20434;-76
2021/07/08 05:14:31;;;;;;;11.90;7.40;;;18.10;70.80;;;;;;5080633;28;20375;-76
2021/07/08 05:16:57;;;;;;;12.23;7.83;;;18.10;71.90;;;;;;5082923;28;20457;-77
2021/07/08 05:19:22;;;;;;;8.82;7.28;;;18.20;71.50;;;;;;5082240;28;20384;-76
2021/07/08 05:21:50;;;;;;;8.50;5.93;;;18.30;71.20;;;;;;5082356;28;20467;-78
2021/07/08 05:24:22;;;;;;;13.63;8.90;;;18.50;69.00;;;;;;5081101;28;20422;-76
2021/07/08 05:26:48;;;;;;;12.25;7.53;;;18.50;68.40;;;;;;5082811;28;20380;-76
2021/07/08 05:29:14;;;;;;;11.63;7.70;;;18.60;66.80;;;;;;5061611;28;20815;-78
2021/07/08 05:31:40;;;;;;;18.57;10.60;;;18.70;65.10;;;;;;5078651;28;20394;-78
2021/07/08 05:34:05;;;;;;;17.27;9.80;;;18.90;63.10;;;;;;5085841;28;20406;-78
2021/07/08 05:36:31;;;;;;;10.05;7.70;;;18.90;62.00;;;;;;5088871;28;20391;-77
2021/07/08 05:38:57;;;;;;;13.75;8.20;;;18.90;61.20;;;;;;5068447;28;20418;-77
2021/07/08 05:41:22;;;;;;;15.30;7.07;;;18.90;61.00;;;;;;5065955;28;20440;-78
2021/07/08 05:43:48;;;;;;;13.50;6.63;;;19.00;60.00;;;;;;5080415;28;20392;-77
2021/07/08 05:46:13;;;;;;;11.35;7.10;;;19.00;59.60;;;;;;5082441;28;20388;-78
2021/07/08 05:48:39;;;;;;;11.80;6.80;;;19.20;59.30;;;;;;5084980;28;20423;-76
2021/07/08 05:51:04;;;;;;;12.13;6.30;;;19.40;58.60;;;;;;5087216;28;20388;-76
2021/07/08 05:53:30;;;;;;;9.68;6.22;;;19.60;57.80;;;;;;5087509;28;20482;-77
2021/07/08 05:55:56;;;;;;;12.00;5.60;;;19.70;57.10;;;;;;5088708;28;20389;-78
2021/07/08 05:58:21;;;;;;;9.83;6.30;;;19.80;56.50;;;;;;5059381;28;20414;-79
2021/07/08 06:00:48;;;;;;;13.20;6.30;;;19.90;55.40;;;;;;5076970;28;20391;-78
2021/07/08 06:03:15;;;;;;;13.52;6.80;;;19.80;55.20;;;;;;5077368;28;20380;-77
2021/07/08 06:05:40;;;;;;;11.80;6.33;;;19.70;54.50;;;;;;5076462;28;20379;-79
2021/07/08 06:08:06;;;;;;;10.77;6.10;;;19.70;53.90;;;;;;5058618;28;20421;-78
2021/07/08 06:10:32;;;;;;;11.98;6.20;;;19.80;53.90;;;;;;5076360;28;20375;-78
2021/07/08 06:12:57;;;;;;;10.90;6.10;;;19.80;54.50;;;;;;5076145;28;20390;-77
2021/07/08 06:15:24;;;;;;;10.80;6.60;;;20.00;53.00;;;;;;5075373;28;20394;-78
2021/07/08 06:17:50;;;;;;;21.90;15.50;;;20.00;51.10;;;;;;5077533;28;20883;-79
2021/07/08 06:20:17;;;;;;;12.43;7.30;;;20.10;51.80;;;;;;5079019;28;20398;-77
2021/07/08 06:22:43;;;;;;;11.03;6.70;;;20.20;49.80;;;;;;5062237;28;20392;-77
2021/07/08 06:25:09;;;;;;;77.57;37.45;;;20.20;47.80;;;;;;5078166;28;20390;-78
2021/07/08 06:27:34;;;;;;;13.60;6.55;;;20.30;47.50;;;;;;5077180;28;21020;-78
2021/07/08 06:30:00;;;;;;;11.73;5.90;;;20.40;46.20;;;;;;5078762;28;20392;-77
2021/07/08 06:32:25;;;;;;;7.07;5.00;;;20.30;45.30;;;;;;5080402;28;20391;-77
2021/07/08 06:34:51;;;;;;;15.77;6.43;;;20.40;44.60;;;;;;5061903;28;20726;-77
2021/07/08 06:37:17;;;;;;;10.67;5.67;;;20.50;44.30;;;;;;5063086;28;20464;-77
2021/07/08 06:39:43;;;;;;;13.85;6.07;;;20.60;44.10;;;;;;5080558;28;20472;-77
2021/07/08 06:42:09;;;;;;;19.25;6.53;;;20.60;44.00;;;;;;5081259;28;20384;-78
2021/07/08 06:44:35;;;;;;;13.40;6.45;;;20.60;43.60;;;;;;5082818;28;20389;-77
2021/07/08 06:47:02;;;;;;;11.90;6.72;;;20.60;44.00;;;;;;5083574;28;20432;-78
2021/07/08 06:49:28;;;;;;;28.30;11.27;;;20.70;44.00;;;;;;5066660;28;20403;-76
2021/07/08 06:51:54;;;;;;;18.27;7.77;;;20.80;44.10;;;;;;5083913;28;20380;-79
2021/07/08 06:54:20;;;;;;;14.67;6.60;;;21.00;44.50;;;;;;5083703;28;20383;-76
2021/07/08 06:56:45;;;;;;;14.20;6.70;;;21.10;43.10;;;;;;5083671;28;20379;-77
2021/07/08 06:59:11;;;;;;;11.85;7.00;;;21.20;42.50;;;;;;5086226;28;20792;-77
2021/07/08 07:01:37;;;;;;;17.53;7.83;;;21.30;42.70;;;;;;5085048;28;20391;-76
2021/07/08 07:04:03;;;;;;;17.85;7.70;;;21.40;42.00;;;;;;5085846;28;20388;-77
2021/07/08 07:06:29;;;;;;;14.88;7.43;;;21.80;39.90;;;;;;5084533;28;20426;-76
2021/07/08 07:08:54;;;;;;;19.58;8.02;;;22.10;39.90;;;;;;5067046;28;20400;-76
2021/07/08 07:11:20;;;;;;;13.50;8.10;;;22.50;38.50;;;;;;5085986;28;20394;-76
2021/07/08 07:13:45;;;;;;;13.43;8.67;;;22.80;36.10;;;;;;5066948;28;20371;-78
2021/07/08 07:16:11;;;;;;;19.42;8.48;;;23.20;33.80;;;;;;5083806;28;20383;-78
2021/07/08 07:18:39;;;;;;;17.77;9.47;;;23.70;32.70;;;;;;5084241;28;20384;-78
2021/07/08 07:21:08;;;;;;;9.32;7.50;;;23.90;31.80;;;;;;5085002;28;20387;-79
2021/07/08 07:23:33;;;;;;;19.60;8.70;;;24.10;30.90;;;;;;5083311;28;20395;-78
2021/07/08 07:25:59;;;;;;;17.92;8.50;;;24.20;29.10;;;;;;5083564;28;20383;-79
2021/07/08 07:28:25;;;;;;;14.10;8.00;;;23.90;29.70;;;;;;5083436;28;20400;-76
2021/07/08 07:30:51;;;;;;;21.88;8.05;;;23.80;30.50;;;;;;5085128;28;20380;-77
2021/07/08 07:33:16;;;;;;;20.05;8.10;;;23.80;31.20;;;;;;5083615;28;20383;-78
2021/07/08 07:35:42;;;;;;;17.50;8.90;;;23.90;31.10;;;;;;5080583;28;20398;-79
2021/07/08 07:38:11;;;;;;;12.45;7.72;;;23.90;30.50;;;;;;5065615;28;20391;-76
2021/07/08 07:40:38;;;;;;;15.18;8.30;;;23.90;31.50;;;;;;5081002;28;20457;-77
2021/07/08 07:43:03;;;;;;;12.52;7.88;;;24.00;31.20;;;;;;5062551;28;20848;-79
2021/07/08 07:45:29;;;;;;;17.40;8.30;;;24.10;30.60;;;;;;5079864;28;20422;-79
2021/07/08 07:47:55;;;;;;;14.38;7.80;;;24.40;29.90;;;;;;5079320;28;20891;-78
2021/07/08 07:50:22;;;;;;;15.90;7.00;;;24.50;29.00;;;;;;5079711;28;20484;-79
2021/07/08 07:52:48;;;;;;;15.10;8.10;;;24.60;28.50;;;;;;5084540;28;20428;-78
2021/07/08 07:55:13;;;;;;;13.30;8.53;;;24.60;28.40;;;;;;5083031;28;20402;-76
2021/07/08 07:57:41;;;;;;;14.10;8.30;;;24.80;28.30;;;;;;5082957;28;20884;-80
2021/07/08 08:00:07;;;;;;;20.35;8.80;;;24.80;26.00;;;;;;5082842;28;20383;-77
2021/07/08 08:02:32;;;;;;;16.73;8.57;;;24.70;26.20;;;;;;5067094;28;20418;-76
2021/07/08 08:10:14;;;;;;;16.65;8.80;;;25.10;24.60;;;;;;5083000;28;20411;-78
2021/07/08 08:12:40;;;;;;;15.25;7.80;;;24.90;25.80;;;;;;5083128;28;20387;-78
2021/07/08 08:15:08;;;;;;;12.40;7.82;;;25.00;24.60;;;;;;5081968;28;20376;-77
2021/07/08 08:17:35;;;;;;;12.52;7.35;;;25.40;23.10;;;;;;5064015;28;20426;-77
2021/07/08 08:20:01;;;;;;;15.20;8.10;;;25.70;22.30;;;;;;5083561;28;20388;-80
2021/07/08 08:22:32;;;;;;;11.95;7.28;;;25.60;22.20;;;;;;5084518;28;20399;-78
2021/07/08 08:24:58;;;;;;;12.40;6.70;;;25.90;22.00;;;;;;5081402;28;20380;-80
2021/07/08 08:27:23;;;;;;;14.80;7.70;;;25.90;21.70;;;;;;5063750;28;20410;-77
2021/07/08 08:29:50;;;;;;;16.10;7.10;;;26.10;21.80;;;;;;5084395;28;20427;-78
2021/07/08 08:32:19;;;;;;;11.73;6.60;;;26.20;20.70;;;;;;5068906;28;20395;-77
2021/07/08 08:34:47;;;;;;;9.63;5.15;;;26.60;19.40;;;;;;5091583;28;20387;-76
2021/07/08 08:37:12;;;;;;;10.65;5.25;;;26.60;19.10;;;;;;5091884;28;20463;-78
2021/07/08 08:39:38;;;;;;;7.25;4.40;;;26.60;18.90;;;;;;5088574;28;20391;-79
2021/07/08 08:42:08;;;;;;;10.67;5.07;;;26.60;18.30;;;;;;5063885;28;20742;-80
2021/07/08 08:44:34;;;;;;;13.80;5.28;;;26.50;18.20;;;;;;5063846;28;20872;-79
2021/07/08 08:47:00;;;;;;;11.77;5.20;;;26.80;17.90;;;;;;5079543;28;20468;-77
2021/07/08 08:49:25;;;;;;;9.53;5.13;;;26.50;18.10;;;;;;5078203;28;20927;-76
2021/07/08 08:51:55;;;;;;;13.13;5.22;;;26.40;18.30;;;;;;5079815;28;20468;-78
2021/07/08 08:54:20;;;;;;;9.07;4.82;;;26.40;17.80;;;;;;5078839;28;20384;-76
2021/07/08 08:56:49;;;;;;;10.00;5.43;;;26.60;17.80;;;;;;5079246;28;20455;-78
2021/07/08 08:59:15;;;;;;;9.93;4.63;;;26.70;17.30;;;;;;5082038;28;20384;-75
2021/07/08 09:01:40;;;;;;;9.20;4.90;;;26.70;16.80;;;;;;5082775;28;20404;-80
2021/07/08 09:04:33;;;;;;;10.30;4.53;;;26.50;16.70;;;;;;5082700;28;20390;-77
2021/07/08 09:07:36;;;;;;;9.40;4.35;;;26.50;17.30;;;;;;5083719;28;20399;-76
2021/07/08 09:10:11;;;;;;;14.93;5.00;;;26.70;17.30;;;;;;5078738;28;20423;-79
2021/07/08 09:12:37;;;;;;;12.38;4.93;;;27.00;17.90;;;;;;5076953;28;20383;-76
2021/07/08 09:15:19;;;;;;;8.77;4.70;;;27.00;17.00;;;;;;5078646;28;20380;-80
2021/07/08 09:17:45;;;;;;;5.28;3.90;;;27.00;16.80;;;;;;5078211;28;20390;-79
2021/07/08 09:20:16;;;;;;;9.60;4.47;;;26.80;15.90;;;;;;5078338;28;20533;-77
2021/07/08 09:22:46;;;;;;;5.85;3.40;;;26.60;16.00;;;;;;5060098;28;20413;-78
2021/07/08 09:25:21;;;;;;;7.88;3.30;;;26.60;15.90;;;;;;5078320;28;20872;-77
2021/07/08 09:27:49;;;;;;;6.55;3.30;;;26.70;14.30;;;;;;5078025;28;20745;-79
2021/07/08 09:30:28;;;;;;;4.80;3.60;;;27.40;13.80;;;;;;5082172;28;20402;-78
2021/07/08 09:32:54;;;;;;;6.80;3.90;;;27.40;14.00;;;;;;5064002;28;20499;-77
2021/07/08 09:35:37;;;;;;;8.80;4.03;;;27.40;14.40;;;;;;5099201;22;20440;-79
2021/07/08 09:38:13;;;;;;;9.85;4.93;;;27.20;14.50;;;;;;5086338;28;20384;-80
2021/07/08 09:40:41;;;;;;;10.53;4.80;;;26.90;14.80;;;;;;5085493;28;20395;-78
2021/07/08 09:43:07;;;;;;;13.30;5.03;;;26.70;15.50;;;;;;5085328;28;20394;-79
2021/07/08 09:45:46;;;;;;;7.55;5.18;;;26.70;16.50;;;;;;5084943;28;20418;-80
2021/07/08 09:48:19;;;;;;;10.40;4.50;;;26.70;16.20;;;;;;5082319;28;20837;-78
2021/07/08 09:50:45;;;;;;;9.90;4.88;;;26.80;16.20;;;;;;5064507;28;20892;-78
2021/07/08 09:53:18;;;;;;;13.40;4.88;;;26.40;17.60;;;;;;5081044;28;20441;-79
2021/07/08 09:58:51;;;;;;;12.25;5.80;;;26.60;17.40;;;;;;5081765;28;20376;-79
2021/07/08 10:01:17;;;;;;;12.27;5.28;;;26.30;16.60;;;;;;5063361;28;20786;-79
2021/07/08 10:03:48;;;;;;;11.65;5.25;;;26.40;16.90;;;;;;5080606;28;20395;-80
2021/07/08 10:06:14;;;;;;;9.90;4.97;;;26.50;16.30;;;;;;5081080;28;20443;-77
2021/07/08 10:08:41;;;;;;;10.50;5.40;;;26.60;17.10;;;;;;5081627;28;20418;-79
2021/07/08 10:11:08;;;;;;;11.48;5.40;;;26.70;15.70;;;;;;5084077;28;20388;-79
2021/07/08 10:13:37;;;;;;;13.70;5.10;;;26.70;15.20;;;;;;5081287;28;20415;-80
2021/07/08 10:16:04;;;;;;;12.77;5.30;;;26.80;14.70;;;;;;5082037;28;20443;-79
2021/07/08 10:18:32;;;;;;;7.03;4.20;;;26.60;14.70;;;;;;5081560;28;20447;-79
2021/07/08 10:20:59;;;;;;;8.23;4.50;;;26.60;14.10;;;;;;5082005;28;20391;-78
2021/07/08 10:23:32;;;;;;;10.00;4.93;;;26.60;14.90;;;;;;5080681;28;20384;-80
2021/07/08 10:26:00;;;;;;;10.82;4.80;;;26.50;15.40;;;;;;5060959;28;20399;-78
2021/07/08 10:28:27;;;;;;;8.30;3.70;;;26.60;15.30;;;;;;5078678;28;20403;-80
2021/07/08 10:30:53;;;;;;;8.95;3.67;;;26.90;13.60;;;;;;5078650;28;20411;-79
2021/07/08 10:33:19;;;;;;;7.28;3.03;;;26.80;12.90;;;;;;5078585;28;20388;-80
2021/07/08 10:35:50;;;;;;;4.80;3.08;;;26.70;13.00;;;;;;5080358;28;20490;-78
2021/07/08 10:38:36;;;;;;;6.35;2.97;;;26.50;13.40;;;;;;5091115;28;20395;-78
2021/07/08 10:41:22;;;;;;;8.63;3.30;;;26.60;13.60;;;;;;5074854;28;20394;-77
2021/07/08 10:43:48;;;;;;;9.30;4.00;;;26.80;13.20;;;;;;5089861;28;20426;-79
2021/07/08 10:46:15;;;;;;;5.45;3.20;;;26.90;13.30;;;;;;5071116;28;20399;-78
2021/07/08 10:48:46;;;;;;;14.07;3.60;;;26.80;12.80;;;;;;5076434;28;20410;-79
2021/07/08 10:51:18;;;;;;;7.05;4.30;;;26.90;12.60;;;;;;5078441;28;20390;-79
2021/07/08 10:53:46;;;;;;;7.53;3.40;;;27.00;13.10;;;;;;5076907;28;20438;-79
2021/07/08 10:56:20;;;;;;;9.80;3.53;;;27.20;12.80;;;;;;5079050;28;20456;-79
2021/07/08 10:58:56;;;;;;;5.40;3.42;;;27.50;12.20;;;;;;5077688;28;20383;-80
2021/07/08 11:01:22;;;;;;;8.80;3.75;;;27.40;11.20;;;;;;5075930;28;20409;-78
2021/07/08 11:03:57;;;;;;;12.85;4.20;;;27.30;11.90;;;;;;5078743;28;20471;-78
2021/07/08 11:06:31;;;;;;;7.43;3.28;;;27.30;11.80;;;;;;5077930;28;20390;-78
2021/07/08 11:09:05;;;;;;;8.15;3.85;;;27.80;10.70;;;;;;5081198;28;20395;-78
2021/07/08 11:11:33;;;;;;;8.57;4.07;;;28.20;10.70;;;;;;5062550;28;20392;-78
2021/07/08 11:14:11;;;;;;;4.75;3.45;;;28.20;10.40;;;;;;5078268;28;20402;-79
2021/07/08 11:16:50;;;;;;;9.23;3.65;;;28.80;8.60;;;;;;5078207;28;20402;-78
2021/07/08 11:19:32;;;;;;;5.35;3.70;;;28.70;9.00;;;;;;5086290;28;20694;-78
2021/07/08 11:22:03;;;;;;;5.75;3.67;;;28.60;9.40;;;;;;5063649;28;20449;-79
2021/07/08 11:24:45;;;;;;;8.10;3.90;;;28.30;10.80;;;;;;5063702;28;20407;-77
2021/07/08 11:27:12;;;;;;;14.00;3.83;;;28.30;11.00;;;;;;5089270;28;20420;-76
2021/07/08 11:29:41;;;;;;;10.82;4.07;;;28.40;10.10;;;;;;5090067;28;20404;-77
2021/07/08 11:32:51;;;;;;;5.90;3.80;;;28.50;10.40;;;;;;5087335;28;20707;-76
2021/07/08 11:35:31;;;;;;;7.10;3.20;;;28.70;9.40;;;;;;5062341;28;20803;-77
2021/07/08 11:38:03;;;;;;;7.43;3.50;;;29.00;9.70;;;;;;5081088;28;20376;-79
2021/07/08 11:40:42;;;;;;;7.40;3.40;;;28.60;11.00;;;;;;5082072;28;20472;-78
2021/07/08 11:43:17;;;;;;;4.35;3.08;;;28.20;11.40;;;;;;5081489;28;20724;-79
2021/07/08 11:45:43;;;;;;;6.65;3.47;;;27.60;11.60;;;;;;5080318;28;20395;-78
2021/07/08 11:48:09;;;;;;;8.93;3.90;;;27.40;11.40;;;;;;5082343;28;20416;-79
2021/07/08 11:50:37;;;;;;;8.55;3.53;;;27.30;11.70;;;;;;5081817;28;20445;-79
2021/07/08 11:53:18;;;;;;;4.78;3.10;;;27.50;12.60;;;;;;5080905;28;20433;-78
2021/07/08 11:55:56;;;;;;;4.53;2.85;;;27.50;11.70;;;;;;5080351;28;20883;-77
2021/07/08 11:58:27;;;;;;;5.38;3.28;;;27.70;11.00;;;;;;5080888;28;20802;-78
2021/07/08 12:00:55;;;;;;;10.65;4.00;;;28.00;10.90;;;;;;5078266;28;20919;-79
2021/07/08 12:03:32;;;;;;;8.50;3.10;;;28.40;10.60;;;;;;5060015;28;20895;-78
2021/07/08 12:05:59;;;;;;;4.63;2.95;;;28.40;9.50;;;;;;5079272;28;20678;-79
2021/07/08 12:08:41;;;;;;;6.68;3.00;;;28.30;10.30;;;;;;5060962;28;20431;-78
2021/07/08 12:11:16;;;;;;;8.52;3.67;;;28.30;9.40;;;;;;5077389;28;20384;-77
2021/07/08 12:13:53;;;;;;;4.50;3.05;;;28.00;11.10;;;;;;5078744;28;20805;-78
2021/07/08 12:16:31;;;;;;;4.50;2.70;;;27.70;11.10;;;;;;5079930;28;20384;-78
2021/07/08 12:19:06;;;;;;;14.55;3.50;;;27.60;11.40;;;;;;5078892;28;20384;-80
2021/07/08 12:21:43;;;;;;;6.43;3.13;;;27.60;11.40;;;;;;5077634;28;20388;-77
2021/07/08 12:24:30;;;;;;;4.75;3.22;;;27.70;12.40;;;;;;5059762;28;20886;-77
2021/07/08 12:27:01;;;;;;;7.65;3.55;;;27.70;12.00;;;;;;5077976;28;20422;-78
2021/07/08 12:29:37;;;;;;;4.75;2.70;;;27.50;12.00;;;;;;5079141;28;20403;-78
2021/07/08 12:32:06;;;;;;;7.30;3.40;;;27.40;12.10;;;;;;5081411;28;20383;-77
2021/07/08 12:34:50;;;;;;;6.78;3.60;;;27.00;13.90;;;;;;5077934;28;20379;-79
2021/07/08 12:37:20;;;;;;;8.05;3.40;;;26.60;13.60;;;;;;5077738;28;20726;-78
2021/07/08 12:39:53;;;;;;;8.43;3.72;;;26.00;14.40;;;;;;5080758;28;20407;-78
2021/07/08 12:42:24;;;;;;;5.87;3.20;;;25.70;15.10;;;;;;5084749;28;20443;-77
2021/07/08 12:44:57;;;;;;;7.45;4.40;;;25.70;15.50;;;;;;5085245;28;20802;-77
2021/07/08 12:47:23;;;;;;;7.63;3.80;;;26.10;16.10;;;;;;5081424;28;20485;-78
2021/07/08 12:49:50;;;;;;;11.30;3.72;;;26.40;14.70;;;;;;5062196;28;20912;-80
2021/07/08 12:52:17;;;;;;;9.10;3.80;;;26.70;14.70;;;;;;5080204;28;20384;-78
2021/07/08 12:54:43;;;;;;;5.65;3.30;;;26.70;13.50;;;;;;5078870;28;20394;-79